sensor_id;sensor_type;location;lat;lon;timestamp;temperature;humidity
12115;DHT22;6121;49.810;6.418;2022-12-07T00:01:41;4.50;99.90
12115;DHT22;6121;49.810;6.418;2022-12-07T00:04:09;4.60;99.90
12115;DHT22;6121;49.810;6.418;2022-12-07T00:06:38;4.60;99.90
12115;DHT22;6121;49.810;6.418;2022-12-07T00:09:06;4.60;99.90
12115;DHT22;6121;49.810;6.418;2022-12-07T00:11:32;4.60;99.90
12115;DHT22;6121;49.810;6.418;2022-12-07T00:13:59;4.60;99.90
12115;DHT22;6121;49.810;6.418;2022-12-07T00:16:29;4.70;99.90
12115;DHT22;6121;49.810;6.418;2022-12-07T00:18:55;4.60;99.90
12115;DHT22;6121;49.810;6.418;2022-12-07T00:21:32;4.60;99.90
12115;DHT22;6121;49.810;6.418;2022-12-07T00:23:58;4.70;99.90
12115;DHT22;6121;49.810;6.418;2022-12-07T00:26:26;4.60;99.90
12115;DHT22;6121;49.810;6.418;2022-12-07T00:29:00;4.60;99.90
12115;DHT22;6121;49.810;6.418;2022-12-07T00:31:33;4.70;99.90
12115;DHT22;6121;49.810;6.418;2022-12-07T00:34:00;4.70;99.90
12115;DHT22;6121;49.810;6.418;2022-12-07T00:36:26;4.70;99.90
12115;DHT22;6121;49.810;6.418;2022-12-07T00:38:52;4.70;99.90
12115;DHT22;6121;49.810;6.418;2022-12-07T00:41:20;4.70;99.90
12115;DHT22;6121;49.810;6.418;2022-12-07T00:43:47;4.60;99.90
12115;DHT22;6121;49.810;6.418;2022-12-07T00:46:13;4.70;99.90
12115;DHT22;6121;49.810;6.418;2022-12-07T00:48:39;4.70;99.90
12115;DHT22;6121;49.810;6.418;2022-12-07T00:51:05;4.70;99.90
12115;DHT22;6121;49.810;6.418;2022-12-07T00:53:34;4.70;99.90
12115;DHT22;6121;49.810;6.418;2022-12-07T00:56:05;4.70;99.90
12115;DHT22;6121;49.810;6.418;2022-12-07T00:58:31;4.70;99.90
12115;DHT22;6121;49.810;6.418;2022-12-07T01:01:00;4.70;99.90
12115;DHT22;6121;49.810;6.418;2022-12-07T01:03:26;4.50;99.90
12115;DHT22;6121;49.810;6.418;2022-12-07T01:05:53;4.50;99.90
12115;DHT22;6121;49.810;6.418;2022-12-07T01:08:20;4.60;99.90
12115;DHT22;6121;49.810;6.418;2022-12-07T01:10:46;4.60;99.90
12115;DHT22;6121;49.810;6.418;2022-12-07T01:13:12;4.60;99.90
12115;DHT22;6121;49.810;6.418;2022-12-07T01:15:44;4.60;99.90
12115;DHT22;6121;49.810;6.418;2022-12-07T01:18:10;4.50;99.90
12115;DHT22;6121;49.810;6.418;2022-12-07T01:20:36;4.60;99.90
12115;DHT22;6121;49.810;6.418;2022-12-07T01:23:02;4.60;99.90
12115;DHT22;6121;49.810;6.418;2022-12-07T01:25:28;4.60;99.90
12115;DHT22;6121;49.810;6.418;2022-12-07T01:27:54;4.60;99.90
12115;DHT22;6121;49.810;6.418;2022-12-07T01:30:19;4.50;99.90
12115;DHT22;6121;49.810;6.418;2022-12-07T01:32:45;4.30;99.90
12115;DHT22;6121;49.810;6.418;2022-12-07T01:35:11;4.40;99.90
12115;DHT22;6121;49.810;6.418;2022-12-07T01:37:37;4.50;99.90
12115;DHT22;6121;49.810;6.418;2022-12-07T01:40:05;4.60;99.90
12115;DHT22;6121;49.810;6.418;2022-12-07T01:42:31;4.60;99.90
12115;DHT22;6121;49.810;6.418;2022-12-07T01:47:55;4.30;99.90
12115;DHT22;6121;49.810;6.418;2022-12-07T01:50:25;4.30;99.90
12115;DHT22;6121;49.810;6.418;2022-12-07T01:52:52;4.20;99.90
12115;DHT22;6121;49.810;6.418;2022-12-07T01:55:19;4.20;99.90
12115;DHT22;6121;49.810;6.418;2022-12-07T01:57:49;4.10;99.90
12115;DHT22;6121;49.810;6.418;2022-12-07T02:00:16;4.10;99.90
12115;DHT22;6121;49.810;6.418;2022-12-07T02:02:55;4.20;99.90
12115;DHT22;6121;49.810;6.418;2022-12-07T02:05:23;4.30;99.90
12115;DHT22;6121;49.810;6.418;2022-12-07T02:07:51;4.30;99.90
12115;DHT22;6121;49.810;6.418;2022-12-07T02:10:23;4.40;99.90
12115;DHT22;6121;49.810;6.418;2022-12-07T02:12:53;4.40;99.90
12115;DHT22;6121;49.810;6.418;2022-12-07T02:15:21;4.40;99.90
12115;DHT22;6121;49.810;6.418;2022-12-07T02:20:32;4.40;99.90
12115;DHT22;6121;49.810;6.418;2022-12-07T02:26:03;4.50;99.90
12115;DHT22;6121;49.810;6.418;2022-12-07T02:31:16;4.30;99.90
12115;DHT22;6121;49.810;6.418;2022-12-07T02:33:48;4.50;99.90
12115;DHT22;6121;49.810;6.418;2022-12-07T02:36:27;4.50;99.90
12115;DHT22;6121;49.810;6.418;2022-12-07T02:39:06;4.30;99.90
12115;DHT22;6121;49.810;6.418;2022-12-07T02:41:36;4.30;99.90
12115;DHT22;6121;49.810;6.418;2022-12-07T02:44:13;4.30;99.90
12115;DHT22;6121;49.810;6.418;2022-12-07T02:46:44;4.20;99.90
12115;DHT22;6121;49.810;6.418;2022-12-07T02:49:12;4.20;99.90
12115;DHT22;6121;49.810;6.418;2022-12-07T02:51:40;4.20;99.90
12115;DHT22;6121;49.810;6.418;2022-12-07T02:54:16;4.20;99.90
12115;DHT22;6121;49.810;6.418;2022-12-07T02:56:53;4.30;99.90
12115;DHT22;6121;49.810;6.418;2022-12-07T02:59:49;4.50;99.90
12115;DHT22;6121;49.810;6.418;2022-12-07T03:10:35;4.60;99.90
12115;DHT22;6121;49.810;6.418;2022-12-07T03:13:40;4.50;99.90
12115;DHT22;6121;49.810;6.418;2022-12-07T03:18:48;4.60;99.90
12115;DHT22;6121;49.810;6.418;2022-12-07T03:21:23;4.60;99.90
12115;DHT22;6121;49.810;6.418;2022-12-07T03:23:54;4.60;99.90
12115;DHT22;6121;49.810;6.418;2022-12-07T03:26:24;4.70;99.90
12115;DHT22;6121;49.810;6.418;2022-12-07T03:28:55;4.80;99.90
12115;DHT22;6121;49.810;6.418;2022-12-07T03:31:32;4.80;99.90
12115;DHT22;6121;49.810;6.418;2022-12-07T03:34:11;4.80;99.90
12115;DHT22;6121;49.810;6.418;2022-12-07T03:36:48;4.90;99.90
12115;DHT22;6121;49.810;6.418;2022-12-07T03:39:35;4.70;99.90
12115;DHT22;6121;49.810;6.418;2022-12-07T03:42:04;4.60;99.90
12115;DHT22;6121;49.810;6.418;2022-12-07T03:44:32;4.70;99.90
12115;DHT22;6121;49.810;6.418;2022-12-07T03:47:12;4.70;99.90
12115;DHT22;6121;49.810;6.418;2022-12-07T03:49:51;4.70;99.90
12115;DHT22;6121;49.810;6.418;2022-12-07T03:52:26;4.80;99.90
12115;DHT22;6121;49.810;6.418;2022-12-07T03:55:01;4.80;99.90
12115;DHT22;6121;49.810;6.418;2022-12-07T03:57:29;4.80;99.90
12115;DHT22;6121;49.810;6.418;2022-12-07T03:59:56;4.90;99.90
12115;DHT22;6121;49.810;6.418;2022-12-07T04:02:25;4.90;99.90
12115;DHT22;6121;49.810;6.418;2022-12-07T04:04:52;4.90;99.90
12115;DHT22;6121;49.810;6.418;2022-12-07T04:07:17;5.00;99.90
12115;DHT22;6121;49.810;6.418;2022-12-07T04:09:43;5.00;99.90
12115;DHT22;6121;49.810;6.418;2022-12-07T04:12:09;5.00;99.90
12115;DHT22;6121;49.810;6.418;2022-12-07T04:14:34;4.90;99.90
12115;DHT22;6121;49.810;6.418;2022-12-07T04:17:00;5.00;99.90
12115;DHT22;6121;49.810;6.418;2022-12-07T04:19:28;4.90;99.90
12115;DHT22;6121;49.810;6.418;2022-12-07T04:21:55;4.80;99.90
12115;DHT22;6121;49.810;6.418;2022-12-07T04:24:20;4.90;99.90
12115;DHT22;6121;49.810;6.418;2022-12-07T04:26:47;4.80;99.90
12115;DHT22;6121;49.810;6.418;2022-12-07T04:29:15;4.80;99.90
12115;DHT22;6121;49.810;6.418;2022-12-07T04:31:41;4.80;99.90
12115;DHT22;6121;49.810;6.418;2022-12-07T04:34:07;4.80;99.90
12115;DHT22;6121;49.810;6.418;2022-12-07T04:36:33;4.80;99.90
12115;DHT22;6121;49.810;6.418;2022-12-07T04:39:00;4.90;99.90
12115;DHT22;6121;49.810;6.418;2022-12-07T04:41:26;4.90;99.90
12115;DHT22;6121;49.810;6.418;2022-12-07T04:43:57;4.80;99.90
12115;DHT22;6121;49.810;6.418;2022-12-07T04:46:24;4.80;99.90
12115;DHT22;6121;49.810;6.418;2022-12-07T04:48:51;4.80;99.90
12115;DHT22;6121;49.810;6.418;2022-12-07T04:51:21;4.90;99.90
12115;DHT22;6121;49.810;6.418;2022-12-07T04:53:47;4.80;99.90
12115;DHT22;6121;49.810;6.418;2022-12-07T04:56:14;4.90;99.90
12115;DHT22;6121;49.810;6.418;2022-12-07T04:58:40;4.90;99.90
12115;DHT22;6121;49.810;6.418;2022-12-07T05:01:06;5.00;99.90
12115;DHT22;6121;49.810;6.418;2022-12-07T05:03:32;5.00;99.90
12115;DHT22;6121;49.810;6.418;2022-12-07T05:05:58;5.10;99.90
12115;DHT22;6121;49.810;6.418;2022-12-07T05:08:23;5.20;99.90
12115;DHT22;6121;49.810;6.418;2022-12-07T05:10:49;5.30;99.90
12115;DHT22;6121;49.810;6.418;2022-12-07T05:13:15;5.30;99.90
12115;DHT22;6121;49.810;6.418;2022-12-07T05:15:41;5.30;99.90
12115;DHT22;6121;49.810;6.418;2022-12-07T05:18:09;5.30;99.90
12115;DHT22;6121;49.810;6.418;2022-12-07T05:20:34;5.40;99.90
12115;DHT22;6121;49.810;6.418;2022-12-07T05:23:00;5.30;99.90
12115;DHT22;6121;49.810;6.418;2022-12-07T05:25:26;5.20;99.90
12115;DHT22;6121;49.810;6.418;2022-12-07T05:27:51;5.00;99.90
12115;DHT22;6121;49.810;6.418;2022-12-07T05:30:17;5.00;99.90
12115;DHT22;6121;49.810;6.418;2022-12-07T05:32:42;5.10;99.90
12115;DHT22;6121;49.810;6.418;2022-12-07T05:35:08;5.10;99.90
12115;DHT22;6121;49.810;6.418;2022-12-07T05:37:34;5.20;99.90
12115;DHT22;6121;49.810;6.418;2022-12-07T05:39:59;5.20;99.90
12115;DHT22;6121;49.810;6.418;2022-12-07T05:42:25;5.20;99.90
12115;DHT22;6121;49.810;6.418;2022-12-07T05:44:50;5.20;99.90
12115;DHT22;6121;49.810;6.418;2022-12-07T05:47:16;5.20;99.90
12115;DHT22;6121;49.810;6.418;2022-12-07T05:49:42;5.20;99.90
12115;DHT22;6121;49.810;6.418;2022-12-07T05:52:08;5.20;99.90
12115;DHT22;6121;49.810;6.418;2022-12-07T05:54:33;5.30;99.90
12115;DHT22;6121;49.810;6.418;2022-12-07T05:56:59;5.30;99.90
12115;DHT22;6121;49.810;6.418;2022-12-07T05:59:25;5.10;99.90
12115;DHT22;6121;49.810;6.418;2022-12-07T06:02:07;5.10;99.90
12115;DHT22;6121;49.810;6.418;2022-12-07T06:04:35;5.20;99.90
12115;DHT22;6121;49.810;6.418;2022-12-07T06:07:01;5.00;99.90
12115;DHT22;6121;49.810;6.418;2022-12-07T06:09:28;5.00;99.90
12115;DHT22;6121;49.810;6.418;2022-12-07T06:11:54;5.00;99.90
12115;DHT22;6121;49.810;6.418;2022-12-07T06:14:39;5.10;99.90
12115;DHT22;6121;49.810;6.418;2022-12-07T06:17:05;5.00;99.90
12115;DHT22;6121;49.810;6.418;2022-12-07T06:19:31;5.00;99.90
12115;DHT22;6121;49.810;6.418;2022-12-07T06:21:57;4.90;99.90
12115;DHT22;6121;49.810;6.418;2022-12-07T06:24:23;5.00;99.90
12115;DHT22;6121;49.810;6.418;2022-12-07T06:26:49;5.10;99.90
12115;DHT22;6121;49.810;6.418;2022-12-07T06:29:15;5.30;99.90
12115;DHT22;6121;49.810;6.418;2022-12-07T06:31:41;5.30;99.90
12115;DHT22;6121;49.810;6.418;2022-12-07T06:34:11;5.00;99.90
12115;DHT22;6121;49.810;6.418;2022-12-07T06:36:37;5.00;99.90
12115;DHT22;6121;49.810;6.418;2022-12-07T06:39:04;5.00;99.90
12115;DHT22;6121;49.810;6.418;2022-12-07T06:41:30;5.00;99.90
12115;DHT22;6121;49.810;6.418;2022-12-07T06:43:55;5.10;99.90
12115;DHT22;6121;49.810;6.418;2022-12-07T06:46:21;5.10;99.90
12115;DHT22;6121;49.810;6.418;2022-12-07T06:48:47;5.20;99.90
12115;DHT22;6121;49.810;6.418;2022-12-07T06:51:12;5.20;99.90
12115;DHT22;6121;49.810;6.418;2022-12-07T06:53:38;5.20;99.90
12115;DHT22;6121;49.810;6.418;2022-12-07T06:56:04;5.20;99.90
12115;DHT22;6121;49.810;6.418;2022-12-07T06:58:30;5.20;99.90
12115;DHT22;6121;49.810;6.418;2022-12-07T07:00:56;5.00;99.90
12115;DHT22;6121;49.810;6.418;2022-12-07T07:03:22;5.10;99.90
12115;DHT22;6121;49.810;6.418;2022-12-07T07:05:48;5.10;99.90
12115;DHT22;6121;49.810;6.418;2022-12-07T07:08:14;5.20;99.90
12115;DHT22;6121;49.810;6.418;2022-12-07T07:10:40;5.20;99.90
12115;DHT22;6121;49.810;6.418;2022-12-07T07:13:06;5.30;99.90
12115;DHT22;6121;49.810;6.418;2022-12-07T07:15:33;5.30;99.90
12115;DHT22;6121;49.810;6.418;2022-12-07T07:17:59;5.30;99.90
12115;DHT22;6121;49.810;6.418;2022-12-07T07:20:25;5.30;99.90
12115;DHT22;6121;49.810;6.418;2022-12-07T07:22:54;5.30;99.90
12115;DHT22;6121;49.810;6.418;2022-12-07T07:25:19;5.30;99.90
12115;DHT22;6121;49.810;6.418;2022-12-07T07:27:45;5.20;99.90
12115;DHT22;6121;49.810;6.418;2022-12-07T07:30:11;5.30;99.90
12115;DHT22;6121;49.810;6.418;2022-12-07T07:32:36;5.30;99.90
12115;DHT22;6121;49.810;6.418;2022-12-07T07:35:03;5.40;99.90
12115;DHT22;6121;49.810;6.418;2022-12-07T07:37:28;5.30;99.90
12115;DHT22;6121;49.810;6.418;2022-12-07T07:39:54;5.30;99.90
12115;DHT22;6121;49.810;6.418;2022-12-07T07:42:20;5.30;99.90
12115;DHT22;6121;49.810;6.418;2022-12-07T07:44:45;5.30;99.90
12115;DHT22;6121;49.810;6.418;2022-12-07T07:47:11;5.40;99.90
12115;DHT22;6121;49.810;6.418;2022-12-07T07:49:37;5.30;99.90
12115;DHT22;6121;49.810;6.418;2022-12-07T07:52:02;5.20;99.90
12115;DHT22;6121;49.810;6.418;2022-12-07T07:54:29;5.20;99.90
12115;DHT22;6121;49.810;6.418;2022-12-07T07:56:54;5.20;99.90
12115;DHT22;6121;49.810;6.418;2022-12-07T07:59:20;5.20;99.90
12115;DHT22;6121;49.810;6.418;2022-12-07T08:01:45;5.10;99.90
12115;DHT22;6121;49.810;6.418;2022-12-07T08:04:11;4.90;99.90
12115;DHT22;6121;49.810;6.418;2022-12-07T08:06:37;5.00;99.90
12115;DHT22;6121;49.810;6.418;2022-12-07T08:09:02;5.00;99.90
12115;DHT22;6121;49.810;6.418;2022-12-07T08:11:30;5.10;99.90
12115;DHT22;6121;49.810;6.418;2022-12-07T08:13:55;5.10;99.90
12115;DHT22;6121;49.810;6.418;2022-12-07T08:16:21;5.20;99.90
12115;DHT22;6121;49.810;6.418;2022-12-07T08:18:47;5.20;99.90
12115;DHT22;6121;49.810;6.418;2022-12-07T08:21:13;5.40;99.90
12115;DHT22;6121;49.810;6.418;2022-12-07T08:23:40;5.40;99.90
12115;DHT22;6121;49.810;6.418;2022-12-07T08:26:08;5.60;99.90
12115;DHT22;6121;49.810;6.418;2022-12-07T08:28:35;5.40;99.90
12115;DHT22;6121;49.810;6.418;2022-12-07T08:31:02;5.40;99.90
12115;DHT22;6121;49.810;6.418;2022-12-07T08:33:28;5.20;99.90
12115;DHT22;6121;49.810;6.418;2022-12-07T08:35:54;5.30;99.90
12115;DHT22;6121;49.810;6.418;2022-12-07T08:38:19;5.40;99.90
12115;DHT22;6121;49.810;6.418;2022-12-07T08:40:53;5.20;99.90
12115;DHT22;6121;49.810;6.418;2022-12-07T08:43:19;5.40;99.90
12115;DHT22;6121;49.810;6.418;2022-12-07T08:45:45;5.60;99.90
12115;DHT22;6121;49.810;6.418;2022-12-07T08:48:13;5.40;99.90
12115;DHT22;6121;49.810;6.418;2022-12-07T08:50:39;5.50;99.90
12115;DHT22;6121;49.810;6.418;2022-12-07T08:53:05;5.50;99.90
12115;DHT22;6121;49.810;6.418;2022-12-07T08:55:33;5.40;99.90
12115;DHT22;6121;49.810;6.418;2022-12-07T08:57:59;5.50;99.90
12115;DHT22;6121;49.810;6.418;2022-12-07T09:00:26;5.50;99.90
12115;DHT22;6121;49.810;6.418;2022-12-07T09:02:51;5.50;99.90
12115;DHT22;6121;49.810;6.418;2022-12-07T09:05:18;5.60;99.90
12115;DHT22;6121;49.810;6.418;2022-12-07T09:07:48;5.70;99.90
12115;DHT22;6121;49.810;6.418;2022-12-07T09:10:14;5.70;99.90
12115;DHT22;6121;49.810;6.418;2022-12-07T09:12:40;5.50;99.90
12115;DHT22;6121;49.810;6.418;2022-12-07T09:15:06;5.60;99.90
12115;DHT22;6121;49.810;6.418;2022-12-07T09:17:33;5.60;99.90
12115;DHT22;6121;49.810;6.418;2022-12-07T09:19:59;6.80;99.90
12115;DHT22;6121;49.810;6.418;2022-12-07T09:22:29;8.60;99.90
12115;DHT22;6121;49.810;6.418;2022-12-07T09:24:56;11.50;99.90
12115;DHT22;6121;49.810;6.418;2022-12-07T09:27:22;13.30;99.90
12115;DHT22;6121;49.810;6.418;2022-12-07T09:29:47;15.70;99.90
12115;DHT22;6121;49.810;6.418;2022-12-07T09:32:13;16.30;99.90
12115;DHT22;6121;49.810;6.418;2022-12-07T09:34:38;13.60;99.90
12115;DHT22;6121;49.810;6.418;2022-12-07T09:37:04;11.40;99.90
12115;DHT22;6121;49.810;6.418;2022-12-07T09:39:30;11.10;99.90
12115;DHT22;6121;49.810;6.418;2022-12-07T09:41:57;11.70;99.90
12115;DHT22;6121;49.810;6.418;2022-12-07T09:44:25;12.70;99.90
12115;DHT22;6121;49.810;6.418;2022-12-07T09:46:52;14.00;99.90
12115;DHT22;6121;49.810;6.418;2022-12-07T09:49:20;13.20;99.90
12115;DHT22;6121;49.810;6.418;2022-12-07T09:51:47;13.60;99.90
12115;DHT22;6121;49.810;6.418;2022-12-07T09:54:15;16.00;99.90
12115;DHT22;6121;49.810;6.418;2022-12-07T09:56:42;17.90;96.90
12115;DHT22;6121;49.810;6.418;2022-12-07T09:59:17;18.40;94.70
12115;DHT22;6121;49.810;6.418;2022-12-07T10:01:47;18.60;93.10
12115;DHT22;6121;49.810;6.418;2022-12-07T10:06:42;16.30;92.70
12115;DHT22;6121;49.810;6.418;2022-12-07T10:09:12;14.10;94.40
12115;DHT22;6121;49.810;6.418;2022-12-07T10:11:57;12.70;96.80
12115;DHT22;6121;49.810;6.418;2022-12-07T10:14:23;11.50;98.20
12115;DHT22;6121;49.810;6.418;2022-12-07T10:16:48;11.10;99.40
12115;DHT22;6121;49.810;6.418;2022-12-07T10:19:20;10.70;99.90
12115;DHT22;6121;49.810;6.418;2022-12-07T10:24:26;10.10;99.90
12115;DHT22;6121;49.810;6.418;2022-12-07T10:26:52;9.80;99.90
12115;DHT22;6121;49.810;6.418;2022-12-07T10:29:22;9.60;99.90
12115;DHT22;6121;49.810;6.418;2022-12-07T10:34:31;9.30;99.90
12115;DHT22;6121;49.810;6.418;2022-12-07T10:37:18;9.20;99.90
12115;DHT22;6121;49.810;6.418;2022-12-07T10:42:29;10.80;99.90
12115;DHT22;6121;49.810;6.418;2022-12-07T10:45:14;11.20;99.90
12115;DHT22;6121;49.810;6.418;2022-12-07T10:48:13;12.10;99.50
12115;DHT22;6121;49.810;6.418;2022-12-07T10:59:18;12.70;97.10
12115;DHT22;6121;49.810;6.418;2022-12-07T11:04:33;11.10;99.30
12115;DHT22;6121;49.810;6.418;2022-12-07T11:07:55;10.90;99.30
12115;DHT22;6121;49.810;6.418;2022-12-07T11:12:47;12.30;98.90
12115;DHT22;6121;49.810;6.418;2022-12-07T11:18:36;11.90;98.00
12115;DHT22;6121;49.810;6.418;2022-12-07T11:24:19;11.40;99.00
12115;DHT22;6121;49.810;6.418;2022-12-07T11:37:32;10.80;99.50
12115;DHT22;6121;49.810;6.418;2022-12-07T11:42:42;10.40;99.50
12115;DHT22;6121;49.810;6.418;2022-12-07T11:50:33;9.60;99.90
12115;DHT22;6121;49.810;6.418;2022-12-07T11:53:25;9.50;99.90
12115;DHT22;6121;49.810;6.418;2022-12-07T12:01:22;9.30;99.90
12115;DHT22;6121;49.810;6.418;2022-12-07T12:03:53;9.20;99.90
12115;DHT22;6121;49.810;6.418;2022-12-07T12:06:22;9.00;99.90
12115;DHT22;6121;49.810;6.418;2022-12-07T12:09:15;9.00;99.90
12115;DHT22;6121;49.810;6.418;2022-12-07T12:12:18;9.00;99.90
12115;DHT22;6121;49.810;6.418;2022-12-07T12:20:19;8.70;99.90
12115;DHT22;6121;49.810;6.418;2022-12-07T12:23:00;8.80;99.90
12115;DHT22;6121;49.810;6.418;2022-12-07T12:25:45;8.80;99.90
12115;DHT22;6121;49.810;6.418;2022-12-07T12:34:02;8.30;99.90
12115;DHT22;6121;49.810;6.418;2022-12-07T12:47:03;7.80;99.90
12115;DHT22;6121;49.810;6.418;2022-12-07T12:49:35;7.80;99.90
12115;DHT22;6121;49.810;6.418;2022-12-07T12:55:13;7.70;99.90
12115;DHT22;6121;49.810;6.418;2022-12-07T12:57:40;7.90;99.90
12115;DHT22;6121;49.810;6.418;2022-12-07T13:00:23;8.30;99.90
12115;DHT22;6121;49.810;6.418;2022-12-07T13:02:53;8.50;99.90
12115;DHT22;6121;49.810;6.418;2022-12-07T13:05:20;8.60;99.90
12115;DHT22;6121;49.810;6.418;2022-12-07T13:13:04;8.20;99.90
12115;DHT22;6121;49.810;6.418;2022-12-07T13:18:23;8.00;99.90
12115;DHT22;6121;49.810;6.418;2022-12-07T13:21:39;8.00;99.90
12115;DHT22;6121;49.810;6.418;2022-12-07T13:29:15;8.20;99.90
12115;DHT22;6121;49.810;6.418;2022-12-07T13:34:41;8.20;99.90
12115;DHT22;6121;49.810;6.418;2022-12-07T13:39:51;8.00;99.90
12115;DHT22;6121;49.810;6.418;2022-12-07T13:42:26;7.90;99.90
12115;DHT22;6121;49.810;6.418;2022-12-07T13:44:52;7.90;99.90
12115;DHT22;6121;49.810;6.418;2022-12-07T13:47:44;8.10;99.90
12115;DHT22;6121;49.810;6.418;2022-12-07T13:50:28;8.00;99.90
12115;DHT22;6121;49.810;6.418;2022-12-07T13:52:59;7.90;99.90
12115;DHT22;6121;49.810;6.418;2022-12-07T13:55:26;8.10;99.90
12115;DHT22;6121;49.810;6.418;2022-12-07T13:57:53;8.20;99.90
12115;DHT22;6121;49.810;6.418;2022-12-07T14:00:27;8.20;99.90
12115;DHT22;6121;49.810;6.418;2022-12-07T14:03:01;7.90;99.90
12115;DHT22;6121;49.810;6.418;2022-12-07T14:05:34;7.70;99.90
12115;DHT22;6121;49.810;6.418;2022-12-07T14:08:05;7.60;99.90
12115;DHT22;6121;49.810;6.418;2022-12-07T14:10:32;7.60;99.90
12115;DHT22;6121;49.810;6.418;2022-12-07T14:12:59;7.40;99.90
12115;DHT22;6121;49.810;6.418;2022-12-07T14:15:33;7.40;99.90
12115;DHT22;6121;49.810;6.418;2022-12-07T14:18:00;7.40;99.90
12115;DHT22;6121;49.810;6.418;2022-12-07T14:20:33;7.30;99.90
12115;DHT22;6121;49.810;6.418;2022-12-07T14:22:59;7.30;99.90
12115;DHT22;6121;49.810;6.418;2022-12-07T14:25:27;7.30;99.90
12115;DHT22;6121;49.810;6.418;2022-12-07T14:27:57;7.30;99.90
12115;DHT22;6121;49.810;6.418;2022-12-07T14:30:26;7.40;99.90
12115;DHT22;6121;49.810;6.418;2022-12-07T14:32:58;7.40;99.90
12115;DHT22;6121;49.810;6.418;2022-12-07T14:35:26;7.50;99.90
12115;DHT22;6121;49.810;6.418;2022-12-07T14:37:51;7.30;99.90
12115;DHT22;6121;49.810;6.418;2022-12-07T14:40:25;7.30;99.90
12115;DHT22;6121;49.810;6.418;2022-12-07T14:42:59;7.40;99.90
12115;DHT22;6121;49.810;6.418;2022-12-07T14:45:27;7.50;99.90
12115;DHT22;6121;49.810;6.418;2022-12-07T14:47:52;7.40;99.90
12115;DHT22;6121;49.810;6.418;2022-12-07T14:50:20;7.20;99.90
12115;DHT22;6121;49.810;6.418;2022-12-07T14:52:52;7.10;99.90
12115;DHT22;6121;49.810;6.418;2022-12-07T14:57:49;7.20;99.90
12115;DHT22;6121;49.810;6.418;2022-12-07T15:00:16;7.30;99.90
12115;DHT22;6121;49.810;6.418;2022-12-07T15:02:44;7.30;99.90
12115;DHT22;6121;49.810;6.418;2022-12-07T15:05:10;7.30;99.90
12115;DHT22;6121;49.810;6.418;2022-12-07T15:07:35;7.40;99.90
12115;DHT22;6121;49.810;6.418;2022-12-07T15:10:01;7.40;99.90
12115;DHT22;6121;49.810;6.418;2022-12-07T15:12:27;7.30;99.90
12115;DHT22;6121;49.810;6.418;2022-12-07T15:14:52;7.40;99.90
12115;DHT22;6121;49.810;6.418;2022-12-07T15:17:18;7.20;99.90
12115;DHT22;6121;49.810;6.418;2022-12-07T15:19:43;7.20;99.90
12115;DHT22;6121;49.810;6.418;2022-12-07T15:22:09;7.00;99.90
12115;DHT22;6121;49.810;6.418;2022-12-07T15:24:36;7.00;99.90
12115;DHT22;6121;49.810;6.418;2022-12-07T15:27:02;6.90;99.90
12115;DHT22;6121;49.810;6.418;2022-12-07T15:29:28;6.70;99.90
12115;DHT22;6121;49.810;6.418;2022-12-07T15:31:54;6.60;99.90
12115;DHT22;6121;49.810;6.418;2022-12-07T15:34:20;6.50;99.90
12115;DHT22;6121;49.810;6.418;2022-12-07T15:36:46;6.50;99.90
12115;DHT22;6121;49.810;6.418;2022-12-07T15:39:12;6.60;99.90
12115;DHT22;6121;49.810;6.418;2022-12-07T15:41:38;6.60;99.90
12115;DHT22;6121;49.810;6.418;2022-12-07T15:44:04;6.50;99.90
12115;DHT22;6121;49.810;6.418;2022-12-07T15:46:48;6.60;99.90
12115;DHT22;6121;49.810;6.418;2022-12-07T15:49:16;6.70;99.90
12115;DHT22;6121;49.810;6.418;2022-12-07T15:51:44;6.80;99.90
12115;DHT22;6121;49.810;6.418;2022-12-07T15:54:13;6.80;99.90
12115;DHT22;6121;49.810;6.418;2022-12-07T15:56:41;6.70;99.90
12115;DHT22;6121;49.810;6.418;2022-12-07T15:59:07;6.50;99.90
12115;DHT22;6121;49.810;6.418;2022-12-07T16:01:32;6.60;99.90
12115;DHT22;6121;49.810;6.418;2022-12-07T16:03:58;6.60;99.90
12115;DHT22;6121;49.810;6.418;2022-12-07T16:06:24;6.60;99.90
12115;DHT22;6121;49.810;6.418;2022-12-07T16:08:50;6.50;99.90
12115;DHT22;6121;49.810;6.418;2022-12-07T16:11:16;6.60;99.90
12115;DHT22;6121;49.810;6.418;2022-12-07T16:13:42;6.60;99.90
12115;DHT22;6121;49.810;6.418;2022-12-07T16:16:10;6.60;99.90
12115;DHT22;6121;49.810;6.418;2022-12-07T16:18:36;6.70;99.90
12115;DHT22;6121;49.810;6.418;2022-12-07T16:21:02;6.60;99.90
12115;DHT22;6121;49.810;6.418;2022-12-07T16:23:28;6.40;99.90
12115;DHT22;6121;49.810;6.418;2022-12-07T16:25:54;6.20;99.90
12115;DHT22;6121;49.810;6.418;2022-12-07T16:28:19;6.40;99.90
12115;DHT22;6121;49.810;6.418;2022-12-07T16:30:45;6.40;99.90
12115;DHT22;6121;49.810;6.418;2022-12-07T16:33:11;6.40;99.90
12115;DHT22;6121;49.810;6.418;2022-12-07T16:35:40;6.40;99.90
12115;DHT22;6121;49.810;6.418;2022-12-07T16:38:06;6.40;99.90
12115;DHT22;6121;49.810;6.418;2022-12-07T16:40:32;6.40;99.90
12115;DHT22;6121;49.810;6.418;2022-12-07T16:42:58;6.40;99.90
12115;DHT22;6121;49.810;6.418;2022-12-07T16:45:23;6.50;99.90
12115;DHT22;6121;49.810;6.418;2022-12-07T16:47:49;6.20;99.90
12115;DHT22;6121;49.810;6.418;2022-12-07T16:50:14;6.10;99.90
12115;DHT22;6121;49.810;6.418;2022-12-07T16:52:40;5.90;99.90
12115;DHT22;6121;49.810;6.418;2022-12-07T16:55:06;5.90;99.90
12115;DHT22;6121;49.810;6.418;2022-12-07T16:57:32;6.00;99.90
12115;DHT22;6121;49.810;6.418;2022-12-07T16:59:57;6.00;99.90
12115;DHT22;6121;49.810;6.418;2022-12-07T17:02:23;5.80;99.90
12115;DHT22;6121;49.810;6.418;2022-12-07T17:04:48;5.80;99.90
12115;DHT22;6121;49.810;6.418;2022-12-07T17:07:14;5.60;99.90
12115;DHT22;6121;49.810;6.418;2022-12-07T17:09:39;5.70;99.90
12115;DHT22;6121;49.810;6.418;2022-12-07T17:12:05;5.70;99.90
12115;DHT22;6121;49.810;6.418;2022-12-07T17:14:32;5.70;99.90
12115;DHT22;6121;49.810;6.418;2022-12-07T17:17:16;5.60;99.90
12115;DHT22;6121;49.810;6.418;2022-12-07T17:19:41;5.70;99.90
12115;DHT22;6121;49.810;6.418;2022-12-07T17:22:07;5.60;99.90
12115;DHT22;6121;49.810;6.418;2022-12-07T17:24:33;5.60;99.90
12115;DHT22;6121;49.810;6.418;2022-12-07T17:26:59;5.50;99.90
12115;DHT22;6121;49.810;6.418;2022-12-07T17:29:24;5.50;99.90
12115;DHT22;6121;49.810;6.418;2022-12-07T17:31:50;5.50;99.90
12115;DHT22;6121;49.810;6.418;2022-12-07T17:34:16;5.60;99.90
12115;DHT22;6121;49.810;6.418;2022-12-07T17:36:41;5.50;99.90
12115;DHT22;6121;49.810;6.418;2022-12-07T17:39:13;5.60;99.90
12115;DHT22;6121;49.810;6.418;2022-12-07T17:41:39;5.60;99.90
12115;DHT22;6121;49.810;6.418;2022-12-07T17:44:23;5.60;99.90
12115;DHT22;6121;49.810;6.418;2022-12-07T17:46:51;5.60;99.90
12115;DHT22;6121;49.810;6.418;2022-12-07T17:49:22;5.70;99.90
12115;DHT22;6121;49.810;6.418;2022-12-07T17:51:48;5.50;99.90
12115;DHT22;6121;49.810;6.418;2022-12-07T17:54:32;5.60;99.90
12115;DHT22;6121;49.810;6.418;2022-12-07T17:56:58;5.70;99.90
12115;DHT22;6121;49.810;6.418;2022-12-07T17:59:23;5.80;99.90
12115;DHT22;6121;49.810;6.418;2022-12-07T18:01:49;5.70;99.90
12115;DHT22;6121;49.810;6.418;2022-12-07T18:04:15;5.70;99.90
12115;DHT22;6121;49.810;6.418;2022-12-07T18:06:41;5.60;99.90
12115;DHT22;6121;49.810;6.418;2022-12-07T18:09:07;5.40;99.90
12115;DHT22;6121;49.810;6.418;2022-12-07T18:11:34;5.60;99.90
12115;DHT22;6121;49.810;6.418;2022-12-07T18:13:59;5.70;99.90